Time;durP1;ratioP1;P1;durP2;ratioP2;P2;SDS_P1;SDS_P2;PMS_P1;PMS_P2;Temp;Humidity;BMP_temperature;BMP_pressure;BME280_temperature;BME280_humidity;BME280_pressure;Samples;Min_cycle;Max_cycle;Signal;HPM_P1;HPM_P2
2022/11/15 00:00:54;;;;;;;6.95;1.80;;;11.50;99.90;;;10.59;100.00;100291.97;4250788;28;20493;-82
2022/11/15 00:02:55;;;;;;;8.20;2.33;;;11.50;99.90;;;10.63;100.00;100288.84;4218057;28;20020;-82
2022/11/15 00:04:56;;;;;;;7.68;2.45;;;11.50;99.90;;;10.62;100.00;100281.09;4218224;28;20031;-82
2022/11/15 00:06:57;;;;;;;7.32;1.05;;;11.50;99.90;;;10.64;100.00;100265.91;4236845;28;20012;-82
2022/11/15 00:09:00;;;;;;;9.90;1.88;;;11.60;99.90;;;10.72;100.00;100277.28;4220995;28;20057;-82
2022/11/15 00:11:02;;;;;;;8.02;1.55;;;11.50;99.90;;;10.69;100.00;100258.34;4218744;28;20047;-83
2022/11/15 00:13:12;;;;;;;6.18;1.80;;;11.50;99.90;;;10.73;100.00;100265.72;4214564;28;20027;-83
2022/11/15 00:15:13;;;;;;;6.07;1.52;;;11.60;99.90;;;10.71;100.00;100257.19;4220081;28;20028;-83
2022/11/15 00:17:14;;;;;;;10.07;1.83;;;11.60;99.90;;;10.74;100.00;100256.00;4253878;27;20484;-83
2022/11/15 00:19:15;;;;;;;4.82;1.50;;;11.60;99.90;;;10.78;100.00;100252.06;4220142;28;20094;-83
2022/11/15 00:21:17;;;;;;;9.10;2.58;;;11.60;99.90;;;10.75;100.00;100237.34;4221147;28;20032;-83
2022/11/15 00:23:18;;;;;;;10.60;1.20;;;11.60;99.90;;;10.78;100.00;100233.59;4253680;27;20066;-83
2022/11/15 00:25:19;;;;;;;11.40;1.83;;;11.60;99.90;;;10.80;100.00;100237.69;4219873;28;20032;-83
2022/11/15 00:27:19;;;;;;;5.15;1.92;;;11.60;99.90;;;10.78;100.00;100223.03;4253642;27;20038;-83
2022/11/15 00:29:20;;;;;;;12.27;1.92;;;11.70;99.90;;;10.83;100.00;100226.81;4219790;28;20016;-83
2022/11/15 00:31:21;;;;;;;8.18;1.92;;;11.70;99.90;;;10.84;100.00;100225.78;4220942;28;20036;-83
2022/11/15 00:33:22;;;;;;;8.45;1.45;;;11.70;99.90;;;10.83;100.00;100215.44;4219679;28;20016;-83
2022/11/15 00:35:23;;;;;;;8.40;1.83;;;11.70;99.90;;;10.85;100.00;100221.34;4220800;28;20028;-83
2022/11/15 00:37:24;;;;;;;6.35;1.95;;;11.70;99.90;;;10.82;100.00;100203.22;4220737;28;20510;-83
2022/11/15 00:39:25;;;;;;;10.27;2.15;;;11.70;99.90;;;10.83;100.00;100196.97;4253550;27;20039;-83
2022/11/15 00:41:25;;;;;;;9.70;2.20;;;11.70;99.90;;;10.81;100.00;100186.56;4220569;28;20024;-83
2022/11/15 00:43:26;;;;;;;13.20;1.98;;;11.70;99.90;;;10.87;100.00;100195.63;4220692;28;20032;-83
2022/11/15 00:45:27;;;;;;;7.82;1.27;;;11.70;99.90;;;10.85;100.00;100189.69;4219555;28;20119;-83
2022/11/15 00:47:28;;;;;;;5.82;1.80;;;11.70;99.90;;;10.80;100.00;100173.56;4220695;28;20101;-83
2022/11/15 00:49:29;;;;;;;11.73;1.80;;;11.70;99.90;;;10.85;100.00;100174.69;4253427;27;20019;-83
2022/11/15 00:51:30;;;;;;;10.50;1.98;;;11.70;99.90;;;10.84;100.00;100173.03;4220528;28;20032;-83
2022/11/15 00:53:31;;;;;;;6.82;1.33;;;11.70;99.90;;;10.79;100.00;100159.53;4220534;28;20030;-83
2022/11/15 00:55:32;;;;;;;9.73;1.45;;;11.70;99.90;;;10.88;100.00;100161.16;4253342;27;20028;-83
2022/11/15 00:57:33;;;;;;;7.03;1.95;;;11.70;99.90;;;10.94;100.00;100167.53;4220553;28;20027;-83
2022/11/15 00:59:34;;;;;;;14.02;2.15;;;11.70;99.90;;;10.94;100.00;100163.09;4220427;28;20024;-83
2022/11/15 01:01:34;;;;;;;6.13;1.75;;;11.80;99.90;;;11.00;100.00;100159.75;4253304;27;20027;-83
2022/11/15 01:03:37;;;;;;;9.27;1.60;;;11.80;99.90;;;10.99;100.00;100155.47;4220510;28;20403;-83
2022/11/15 01:05:38;;;;;;;6.97;1.50;;;11.80;99.90;;;10.99;100.00;100142.28;4219281;28;20028;-83
2022/11/15 01:07:39;;;;;;;6.72;1.40;;;11.80;99.90;;;10.97;100.00;100136.34;4218444;28;20089;-83
2022/11/15 01:09:40;;;;;;;13.50;2.28;;;11.80;99.90;;;10.97;100.00;100136.34;4219162;28;20028;-83
2022/11/15 01:11:41;;;;;;;11.80;1.92;;;11.80;99.90;;;10.89;100.00;100120.56;4220283;28;20047;-83
2022/11/15 01:13:41;;;;;;;10.40;2.10;;;11.80;99.90;;;10.88;100.00;100115.47;4219053;28;20027;-83
2022/11/15 01:15:43;;;;;;;9.50;1.88;;;11.80;99.90;;;10.91;100.00;100117.75;4252855;27;20028;-83
2022/11/15 01:17:44;;;;;;;12.98;1.65;;;11.80;99.90;;;10.92;100.00;100114.97;4219105;28;20482;-83
2022/11/15 01:19:45;;;;;;;7.40;2.03;;;11.80;99.90;;;10.94;100.00;100107.69;4220362;28;20054;-83
2022/11/15 01:21:50;;;;;;;10.55;1.50;;;11.80;99.90;;;10.97;100.00;100109.13;4220423;28;20111;-82
2022/11/15 01:23:55;;;;;;;4.80;1.40;;;11.80;99.90;;;10.98;100.00;100100.25;4235478;28;20019;-83
2022/11/15 01:26:06;;;;;;;9.23;1.58;;;11.80;99.90;;;10.96;100.00;100092.47;4220268;28;20052;-82
2022/11/15 01:28:06;;;;;;;6.15;2.03;;;11.80;99.90;;;10.96;100.00;100091.69;4252519;27;20038;-83
2022/11/15 01:30:08;;;;;;;7.25;1.15;;;11.80;99.90;;;10.96;100.00;100091.69;4252768;27;20024;-83
2022/11/15 01:32:09;;;;;;;10.90;1.52;;;11.80;99.90;;;10.94;100.00;100085.75;4218589;28;20476;-83
2022/11/15 01:34:10;;;;;;;9.32;2.00;;;11.80;99.90;;;10.97;100.00;100082.75;4218954;28;20412;-82
2022/11/15 01:36:18;;;;;;;9.00;2.30;;;11.80;99.90;;;11.02;100.00;100080.44;4252681;27;20104;-83
2022/11/15 01:38:19;;;;;;;10.35;1.67;;;11.80;99.90;;;11.05;100.00;100069.53;4252332;27;20028;-82
2022/11/15 01:40:20;;;;;;;4.32;0.93;;;11.90;99.90;;;11.10;100.00;100073.28;4252549;27;20080;-82
2022/11/15 01:42:20;;;;;;;5.93;1.63;;;11.90;99.90;;;11.07;100.00;100054.31;4219916;28;20059;-82
2022/11/15 01:44:40;;;;;;;10.18;1.85;;;12.00;99.90;;;11.19;100.00;100060.84;4219930;28;20047;-82
2022/11/15 01:46:47;;;;;;;7.72;1.58;;;12.00;99.90;;;11.16;100.00;100040.06;4219625;28;20032;-82
2022/11/15 01:48:51;;;;;;;7.45;1.52;;;12.00;99.90;;;11.19;100.00;100044.19;4252147;27;20036;-82
2022/11/15 01:50:52;;;;;;;;;;;12.10;99.90;;;11.31;100.00;100050.69;4252608;27;20039;-82
2022/11/15 01:52:53;;;;;;;5.30;1.38;;;12.10;99.90;;;11.31;100.00;100051.50;4218394;28;19946;-82
2022/11/15 01:55:19;;;;;;;10.60;1.50;;;12.10;99.90;;;11.40;100.00;100046.97;4235088;28;20024;-82
2022/11/15 01:57:20;;;;;;;5.82;1.30;;;12.20;99.90;;;11.45;100.00;100056.00;4251766;27;20045;-82
2022/11/15 01:59:21;;;;;;;9.18;1.98;;;12.30;99.90;;;11.48;100.00;100033.69;4219836;28;20077;-83
2022/11/15 02:01:26;;;;;;;7.78;1.42;;;12.30;99.90;;;11.54;100.00;100040.91;4219570;28;20031;-83
2022/11/15 02:03:41;;;;;;;6.65;1.50;;;12.30;99.90;;;11.54;100.00;100033.81;4219772;28;20024;-83
2022/11/15 02:05:43;;;;;;;13.60;1.63;;;12.40;99.90;;;11.82;100.00;100031.41;4250829;27;20529;-82
2022/11/15 02:07:45;;;;;;;8.93;1.67;;;12.50;99.90;;;11.93;100.00;100024.84;4251729;27;20564;-82
2022/11/15 02:09:46;;;;;;;10.65;2.03;;;12.60;99.90;;;12.04;100.00;100008.53;4219527;28;20384;-82
2022/11/15 02:11:49;;;;;;;8.23;1.30;;;12.70;99.90;;;12.08;100.00;100010.63;4234806;28;20115;-82
2022/11/15 02:13:50;;;;;;;13.18;2.22;;;12.80;99.90;;;12.16;100.00;100017.63;4218205;28;20055;-82
2022/11/15 02:16:32;;;;;;;7.65;1.45;;;12.90;99.90;;;12.28;100.00;100020.63;4217869;28;20020;-82
2022/11/15 02:18:49;;;;;;;11.45;1.85;;;13.00;99.90;;;12.41;100.00;100015.50;4218324;28;20036;-82
2022/11/15 02:21:36;;;;;;;9.52;1.52;;;13.10;99.90;;;12.38;100.00;100010.59;4217935;28;20097;-83
2022/11/15 02:24:35;;;;;;;15.88;1.83;;;13.20;99.90;;;12.45;100.00;100003.56;4217991;28;20031;-82
2022/11/15 02:27:23;;;;;;;5.93;0.98;;;13.20;99.90;;;12.40;100.00;100003.28;4247268;27;20533;-83
2022/11/15 02:30:16;;;;;;;5.95;1.25;;;13.20;99.90;;;12.37;100.00;99990.44;4218606;28;20491;-82
2022/11/15 02:33:02;;;;;;;11.68;1.88;;;13.20;99.90;;;12.45;100.00;99987.69;4251256;27;20110;-83
2022/11/15 02:35:45;;;;;;;9.90;1.88;;;13.30;99.90;;;12.51;100.00;99986.94;4219188;28;20036;-83
2022/11/15 02:37:57;;;;;;;17.38;3.47;;;13.20;99.90;;;12.39;100.00;99977.88;4183758;28;20040;-82
2022/11/15 02:40:13;;;;;;;11.30;1.55;;;13.20;99.90;;;12.40;100.00;99964.44;4196326;28;20028;-82
2022/11/15 02:44:48;;;;;;;6.47;1.23;;;13.20;99.90;;;12.29;100.00;99959.63;4246143;27;20566;-82
2022/11/15 02:47:19;;;;;;;6.38;1.00;;;13.20;99.90;;;12.31;100.00;99951.50;4251187;27;20028;-82
2022/11/15 02:49:21;;;;;;;11.25;1.65;;;13.10;99.90;;;12.21;100.00;99943.88;4241467;27;20114;-83
2022/11/15 02:51:22;;;;;;;17.83;2.55;;;13.00;99.90;;;12.24;100.00;99954.09;4251381;27;20425;-83
2022/11/15 02:53:27;;;;;;;6.57;1.48;;;13.00;99.90;;;12.20;100.00;99955.47;4251186;27;20019;-83
2022/11/15 02:55:38;;;;;;;10.90;1.45;;;13.00;99.90;;;12.18;100.00;99945.06;4251489;27;20043;-83
2022/11/15 02:58:05;;;;;;;13.45;1.60;;;13.00;99.90;;;12.17;100.00;99935.50;4218929;28;20024;-82
2022/11/15 03:00:15;;;;;;;9.68;1.42;;;13.00;99.90;;;12.17;100.00;99930.22;4246173;27;20031;-83
2022/11/15 03:02:38;;;;;;;6.88;1.80;;;13.00;99.90;;;12.14;100.00;99930.59;4250672;27;20023;-83
2022/11/15 03:05:15;;;;;;;10.38;1.42;;;13.00;99.90;;;12.24;100.00;99926.84;4250690;27;20034;-82
2022/11/15 03:07:44;;;;;;;11.75;2.03;;;13.00;99.90;;;12.21;100.00;99926.16;4246251;27;20062;-82
2022/11/15 03:10:12;;;;;;;11.60;2.30;;;13.00;99.90;;;12.10;100.00;99910.81;4219015;28;20024;-82
2022/11/15 03:12:32;;;;;;;11.45;1.95;;;13.00;99.90;;;12.12;100.00;99911.47;4233649;28;20110;-82
2022/11/15 03:14:49;;;;;;;7.47;2.13;;;13.00;99.90;;;12.14;100.00;99917.38;4217615;28;20024;-82
2022/11/15 03:17:27;;;;;;;10.68;1.65;;;12.90;99.90;;;12.12;100.00;99919.38;4249180;27;20023;-82
2022/11/15 03:19:50;;;;;;;10.02;2.30;;;12.90;99.90;;;12.04;100.00;99902.78;4217340;28;20528;-82
2022/11/15 03:21:55;;;;;;;10.27;1.88;;;12.90;99.90;;;12.03;100.00;99902.00;4233767;28;20023;-83
2022/11/15 03:24:01;;;;;;;9.25;1.90;;;12.90;99.90;;;12.08;100.00;99909.34;4250515;28;20016;-82
2022/11/15 03:26:04;;;;;;;11.52;2.25;;;12.80;99.90;;;11.99;100.00;99906.00;4233755;28;20082;-82
2022/11/15 03:28:09;;;;;;;13.95;2.35;;;12.80;99.90;;;11.97;100.00;99899.28;4250567;28;20035;-83
2022/11/15 03:30:11;;;;;;;15.07;3.45;;;12.80;99.90;;;11.95;100.00;99904.72;4250803;28;20016;-82
2022/11/15 03:32:19;;;;;;;11.13;2.25;;;12.80;99.90;;;11.93;100.00;99895.34;4250976;28;20027;-82
2022/11/15 03:34:24;;;;;;;9.60;2.13;;;12.70;99.90;;;11.86;100.00;99883.88;4233619;28;20016;-82
2022/11/15 03:36:26;;;;;;;9.77;2.05;;;12.70;99.90;;;11.89;100.00;99888.78;4250538;28;20106;-82
2022/11/15 03:38:32;;;;;;;10.13;2.00;;;12.70;99.90;;;11.87;100.00;99891.63;4250884;28;20032;-82
2022/11/15 03:40:45;;;;;;;15.43;2.42;;;12.70;99.90;;;11.87;100.00;99886.34;4221318;28;20028;-82
2022/11/15 03:42:49;;;;;;;11.85;1.75;;;12.70;99.90;;;11.85;100.00;99888.34;4253820;27;20080;-82
2022/11/15 03:45:47;;;;;;;8.52;1.45;;;12.60;99.90;;;11.84;100.00;99886.72;4221726;28;20501;-81
2022/11/15 03:48:05;;;;;;;8.90;1.80;;;12.60;99.90;;;11.79;100.00;99881.16;4203188;28;20028;-82
2022/11/15 03:50:19;;;;;;;11.80;2.35;;;12.60;99.90;;;11.80;100.00;99874.84;4186574;28;20025;-82
2022/11/15 03:52:21;;;;;;;11.95;1.65;;;12.60;99.90;;;11.76;100.00;99881.53;4192283;28;20115;-82
2022/11/15 03:54:22;;;;;;;8.45;1.40;;;12.60;99.90;;;11.80;100.00;99866.13;4214705;28;20024;-82
2022/11/15 03:56:23;;;;;;;11.55;1.75;;;12.60;99.90;;;11.76;100.00;99867.50;4221440;28;20031;-82
2022/11/15 03:58:24;;;;;;;9.88;2.00;;;12.60;99.90;;;11.76;100.00;99865.69;4254384;27;20401;-82
2022/11/15 04:00:25;;;;;;;10.02;1.80;;;12.60;99.90;;;11.76;100.00;99868.31;4221532;28;20102;-82
2022/11/15 04:02:26;;;;;;;19.98;2.58;;;12.60;99.90;;;11.72;100.00;99861.75;4221474;28;20032;-82
2022/11/15 04:04:27;;;;;;;11.68;2.30;;;12.50;99.90;;;11.69;100.00;99856.81;4254241;27;20501;-82
2022/11/15 04:06:28;;;;;;;8.82;1.30;;;12.50;99.90;;;11.73;100.00;99855.50;4220659;28;20024;-83
2022/11/15 04:08:28;;;;;;;9.55;1.65;;;12.50;99.90;;;11.74;100.00;99854.47;4221154;28;20024;-82
2022/11/15 04:10:29;;;;;;;6.20;2.22;;;12.50;99.90;;;11.68;100.00;99855.16;4254134;27;20034;-82
2022/11/15 04:12:36;;;;;;;10.45;1.83;;;12.50;99.90;;;11.64;100.00;99857.38;4221303;28;20495;-82
2022/11/15 04:15:06;;;;;;;13.45;1.90;;;12.40;99.90;;;11.64;100.00;99860.03;4221398;28;20102;-83
2022/11/15 04:16:58;;;;;;;8.85;1.90;;;12.40;99.90;;;11.65;100.00;99843.16;4221095;28;20554;-82
2022/11/15 04:26:04;;;;;;;7.05;1.63;;;12.40;99.90;;;11.58;100.00;99844.09;4221294;28;20074;-81
2022/11/15 04:28:06;;;;;;;11.30;2.22;;;12.40;99.90;;;11.59;100.00;99832.50;4236029;28;20035;-82
2022/11/15 04:30:07;;;;;;;9.07;2.00;;;12.40;99.90;;;11.54;100.00;99824.31;4219879;28;20504;-83
2022/11/15 04:32:09;;;;;;;9.15;1.63;;;12.40;99.90;;;11.52;100.00;99823.69;4219541;28;20115;-82
2022/11/15 04:34:09;;;;;;;11.55;2.72;;;12.40;99.90;;;11.55;100.00;99818.03;4221354;28;20387;-82
2022/11/15 04:38:40;;;;;;;7.45;1.38;;;12.30;99.90;;;11.48;100.00;99810.03;4169114;28;20448;-82
2022/11/15 04:40:41;;;;;;;11.30;2.30;;;12.30;99.90;;;11.56;100.00;99811.75;4215675;28;20044;-82
2022/11/15 04:42:42;;;;;;;12.32;2.55;;;12.30;99.90;;;11.53;100.00;99809.47;4220799;28;20579;-82
2022/11/15 04:44:43;;;;;;;11.15;2.92;;;12.30;99.90;;;11.53;100.00;99799.72;4253481;27;20019;-83
2022/11/15 04:46:44;;;;;;;12.98;2.30;;;12.30;99.90;;;11.56;100.00;99811.75;4219436;28;20495;-83
2022/11/15 04:48:45;;;;;;;10.85;2.13;;;12.30;99.90;;;11.51;100.00;99804.38;4253474;27;20075;-82
2022/11/15 04:50:48;;;;;;;12.23;1.83;;;12.30;99.90;;;11.57;100.00;99800.19;4220307;28;20024;-82
2022/11/15 04:52:54;;;;;;;8.45;1.65;;;12.30;99.90;;;11.53;100.00;99793.63;4220272;28;20020;-82
2022/11/15 04:54:54;;;;;;;13.13;2.03;;;12.30;99.90;;;11.48;100.00;99788.09;4220414;28;20046;-82
2022/11/15 04:56:55;;;;;;;8.93;1.27;;;12.30;99.90;;;11.50;100.00;99788.72;4253764;27;20043;-82
2022/11/15 04:58:56;;;;;;;7.05;1.50;;;12.30;99.90;;;11.46;100.00;99792.75;4219392;28;20032;-82
2022/11/15 05:00:57;;;;;;;5.80;1.70;;;12.30;99.90;;;11.43;100.00;99779.91;4253034;27;20019;-83
2022/11/15 05:05:17;;;;;;;9.52;2.10;;;12.30;99.90;;;11.47;100.00;99783.78;4219390;28;20030;-82
2022/11/15 05:07:18;;;;;;;10.82;2.22;;;12.30;99.90;;;11.42;100.00;99783.53;4235701;28;20035;-83
2022/11/15 05:09:20;;;;;;;11.82;1.77;;;12.30;99.90;;;11.44;100.00;99787.63;4219454;28;20017;-82
2022/11/15 05:11:21;;;;;;;11.48;2.70;;;12.20;99.90;;;11.47;100.00;99786.44;4253110;27;20074;-82
2022/11/15 05:13:22;;;;;;;14.30;2.95;;;12.30;99.90;;;11.45;100.00;99769.97;4220354;28;20043;-82
2022/11/15 05:15:23;;;;;;;9.63;2.10;;;12.30;99.90;;;11.49;100.00;99771.25;4252987;27;20023;-83
2022/11/15 05:17:24;;;;;;;8.98;2.05;;;12.30;99.90;;;11.44;100.00;99763.06;4220161;28;20081;-82
2022/11/15 05:19:25;;;;;;;9.50;2.72;;;12.30;99.90;;;11.49;100.00;99765.97;4219075;28;20062;-81
2022/11/15 05:21:26;;;;;;;10.45;2.13;;;12.30;99.90;;;11.38;100.00;99753.25;4220394;28;20380;-82
2022/11/15 05:23:26;;;;;;;12.25;1.55;;;12.20;99.90;;;11.46;100.00;99755.78;4235499;28;20173;-81
2022/11/15 05:25:28;;;;;;;12.75;1.60;;;12.20;99.90;;;11.50;100.00;99757.00;4219998;28;20399;-81
2022/11/15 05:27:28;;;;;;;12.55;1.83;;;12.30;99.90;;;11.43;100.00;99756.13;4220123;28;20543;-82
2022/11/15 05:29:29;;;;;;;15.15;2.13;;;12.30;99.90;;;11.39;100.00;99750.41;4220117;28;20027;-82
2022/11/15 05:31:30;;;;;;;11.25;1.38;;;12.20;99.90;;;11.40;100.00;99741.50;4220029;28;20141;-82
2022/11/15 05:33:33;;;;;;;9.63;2.78;;;12.20;99.90;;;11.43;100.00;99751.69;4235562;28;20023;-82
2022/11/15 05:35:45;;;;;;;11.70;1.40;;;12.20;99.90;;;11.46;100.00;99737.28;4252584;27;20053;-81
2022/11/15 05:37:47;;;;;;;6.22;1.45;;;12.20;99.90;;;11.43;100.00;99732.38;4252097;27;20027;-82
2022/11/15 05:39:48;;;;;;;11.13;1.83;;;12.20;99.90;;;11.36;100.00;99723.53;4252808;27;20023;-82
2022/11/15 05:41:56;;;;;;;10.02;2.00;;;12.20;99.90;;;11.43;100.00;99724.44;4219834;28;20035;-82
2022/11/15 05:44:00;;;;;;;10.32;1.70;;;12.20;99.90;;;11.42;100.00;99726.28;4234968;28;20087;-82
2022/11/15 05:46:03;;;;;;;9.05;2.42;;;12.20;99.90;;;11.40;100.00;99711.63;4235352;28;20019;-82
2022/11/15 05:48:07;;;;;;;6.65;1.92;;;12.20;99.90;;;11.42;100.00;99714.88;4252291;27;20035;-82
2022/11/15 05:50:14;;;;;;;7.55;1.85;;;12.20;99.90;;;11.40;100.00;99706.34;4252563;27;20034;-82
2022/11/15 05:52:19;;;;;;;13.25;1.95;;;12.20;99.90;;;11.39;100.00;99713.44;4251942;27;20079;-82
2022/11/15 05:54:23;;;;;;;10.57;2.05;;;12.20;99.90;;;11.41;100.00;99694.78;4252117;27;20030;-82
2022/11/15 05:56:25;;;;;;;9.80;2.15;;;12.20;99.90;;;11.37;100.00;99694.34;4235079;28;20111;-82
2022/11/15 05:58:26;;;;;;;8.02;2.00;;;12.20;99.90;;;11.39;100.00;99681.75;4219664;28;20032;-82
2022/11/15 06:00:28;;;;;;;11.00;2.00;;;12.20;99.90;;;11.41;100.00;99692.94;4219602;28;20028;-82
2022/11/15 06:02:28;;;;;;;13.20;2.45;;;12.20;99.90;;;11.47;100.00;99686.09;4251950;27;20042;-82
2022/11/15 06:04:29;;;;;;;10.02;1.48;;;12.20;99.90;;;11.44;100.00;99674.06;4219446;28;20028;-82
2022/11/15 06:06:30;;;;;;;13.55;2.25;;;12.20;99.90;;;11.50;100.00;99672.50;4252326;27;20057;-83
2022/11/15 06:08:31;;;;;;;11.23;2.10;;;12.20;99.90;;;11.51;100.00;99680.25;4218039;28;20036;-82
2022/11/15 06:10:33;;;;;;;10.63;2.00;;;12.30;99.90;;;11.47;100.00;99678.16;4218059;28;20483;-83
2022/11/15 06:12:34;;;;;;;10.95;2.08;;;12.20;99.90;;;11.46;100.00;99672.09;4251915;27;20435;-82
2022/11/15 06:14:35;;;;;;;12.80;1.95;;;12.30;99.90;;;11.43;100.00;99667.19;4218241;28;20051;-83
2022/11/15 06:16:36;;;;;;;14.98;2.25;;;12.30;99.90;;;11.50;100.00;99661.94;4219326;28;20032;-83
2022/11/15 06:18:37;;;;;;;12.57;1.65;;;12.30;99.90;;;11.53;100.00;99666.84;4250737;27;20497;-83
2022/11/15 06:20:38;;;;;;;14.98;1.73;;;12.30;99.90;;;11.58;100.00;99664.47;4219216;28;20079;-83
2022/11/15 06:22:39;;;;;;;14.82;2.90;;;12.30;99.90;;;11.57;100.00;99658.38;4234723;28;20020;-82
2022/11/15 06:24:39;;;;;;;9.63;2.17;;;12.40;99.90;;;11.58;100.00;99656.56;4219242;28;20078;-82
2022/11/15 06:26:40;;;;;;;13.57;2.58;;;12.40;99.90;;;11.58;100.00;99653.91;4251891;27;20052;-82
2022/11/15 06:28:41;;;;;;;11.50;1.98;;;12.30;99.90;;;11.58;100.00;99665.31;4217792;28;20514;-82
2022/11/15 06:30:42;;;;;;;6.18;1.60;;;12.40;99.90;;;11.52;100.00;99646.75;4219098;28;20028;-82
2022/11/15 06:32:43;;;;;;;16.40;2.30;;;12.40;99.90;;;11.71;100.00;99656.69;4219071;28;20039;-82
2022/11/15 06:34:44;;;;;;;14.57;2.55;;;12.40;99.90;;;11.68;100.00;99638.53;4252074;27;20027;-82
2022/11/15 06:36:44;;;;;;;9.45;3.88;;;12.50;99.90;;;11.73;100.00;99646.78;4217787;28;20028;-81
2022/11/15 06:38:45;;;;;;;18.20;4.68;;;12.50;99.90;;;11.76;100.00;99649.03;4218579;28;20032;-82
2022/11/15 06:40:46;;;;;;;14.00;4.43;;;12.50;99.90;;;11.75;100.00;99644.75;4218438;28;20028;-81
2022/11/15 06:42:47;;;;;;;10.52;2.88;;;12.50;99.90;;;11.79;100.00;99645.19;4218937;28;20028;-82
2022/11/15 06:44:48;;;;;;;14.10;3.83;;;12.50;99.90;;;11.76;100.00;99641.09;4218892;28;20024;-82
2022/11/15 06:46:49;;;;;;;12.48;3.20;;;12.60;99.90;;;11.87;100.00;99651.16;4251435;27;20425;-82
2022/11/15 06:48:53;;;;;;;15.23;4.00;;;12.60;99.90;;;11.88;100.00;99650.16;4218870;28;20028;-82
2022/11/15 06:50:57;;;;;;;10.13;4.03;;;12.60;99.90;;;11.85;100.00;99644.44;4251550;27;20027;-82
2022/11/15 06:53:03;;;;;;;14.82;2.92;;;12.60;99.90;;;11.85;100.00;99644.44;4234045;28;20537;-82
2022/11/15 06:55:04;;;;;;;19.58;6.07;;;12.60;99.90;;;11.82;100.00;99650.09;4218673;28;20059;-82
2022/11/15 06:57:05;;;;;;;27.30;11.05;;;12.60;99.90;;;11.91;100.00;99663.00;4251533;27;20440;-82
2022/11/15 06:59:06;;;;;;;28.73;12.88;;;12.70;99.90;;;11.88;100.00;99641.41;4218753;28;20031;-82
2022/11/15 07:01:10;;;;;;;22.15;10.13;;;12.70;99.90;;;12.01;100.00;99639.66;4217546;28;20507;-82
2022/11/15 07:03:11;;;;;;;29.15;13.13;;;12.70;99.90;;;12.01;100.00;99646.78;4218614;28;20716;-81
2022/11/15 07:05:13;;;;;;;16.67;8.05;;;12.70;99.90;;;12.04;100.00;99628.72;4218717;28;20032;-82
2022/11/15 07:07:14;;;;;;;17.92;8.35;;;12.70;99.90;;;12.07;100.00;99635.44;4218515;28;20484;-81
2022/11/15 07:09:15;;;;;;;19.95;11.10;;;12.70;99.90;;;12.03;100.00;99621.81;4218578;28;20024;-81
2022/11/15 07:11:16;;;;;;;16.05;6.63;;;12.80;99.90;;;12.08;100.00;99640.56;4218457;28;20022;-81
2022/11/15 07:13:17;;;;;;;12.65;3.63;;;12.80;99.90;;;12.05;100.00;99627.72;4218441;28;20032;-81
2022/11/15 07:15:19;;;;;;;10.13;2.78;;;12.80;99.90;;;12.06;100.00;99610.03;4250792;27;20449;-82
2022/11/15 07:17:20;;;;;;;10.65;2.60;;;12.80;99.90;;;12.02;100.00;99627.28;4251060;27;20034;-82
2022/11/15 07:19:21;;;;;;;9.82;2.75;;;12.80;99.90;;;11.93;100.00;99607.28;4250037;27;20075;-82
2022/11/15 07:21:22;;;;;;;6.00;2.50;;;12.80;99.90;;;11.98;100.00;99612.81;4218645;28;20036;-82
2022/11/15 07:23:23;;;;;;;7.22;2.80;;;12.80;99.90;;;12.15;100.00;99641.44;4250942;28;20027;-82
2022/11/15 07:25:24;;;;;;;5.80;2.85;;;12.80;99.90;;;12.06;100.00;99621.44;4217251;28;20399;-82
2022/11/15 07:27:24;;;;;;;6.10;2.50;;;12.80;99.90;;;12.05;100.00;99619.78;4218383;28;20073;-81
2022/11/15 07:29:25;;;;;;;10.98;3.38;;;12.80;99.90;;;12.08;100.00;99614.13;4250818;28;20039;-82
2022/11/15 07:31:27;;;;;;;8.45;2.13;;;12.80;99.90;;;12.11;100.00;99634.06;4218431;28;20376;-82
2022/11/15 07:33:28;;;;;;;9.43;2.92;;;12.80;99.90;;;12.05;100.00;99633.00;4218366;28;20027;-82
2022/11/15 07:35:29;;;;;;;6.75;2.25;;;12.80;99.90;;;12.05;100.00;99640.09;4217125;28;20028;-82
2022/11/15 07:37:30;;;;;;;9.18;2.60;;;12.80;99.90;;;12.08;100.00;99640.56;4217042;28;20052;-82
2022/11/15 07:39:31;;;;;;;11.50;3.45;;;12.80;99.90;;;12.01;100.00;99641.50;4218433;28;20024;-82
2022/11/15 07:41:32;;;;;;;8.75;2.60;;;12.80;99.90;;;12.06;100.00;99645.22;4217032;28;20040;-82
2022/11/15 07:43:33;;;;;;;9.60;3.03;;;12.80;99.90;;;12.07;100.00;99638.91;4218143;28;20418;-82
2022/11/15 07:45:44;;;;;;;8.77;2.38;;;12.80;99.90;;;12.10;100.00;99649.09;4250899;28;20023;-81
2022/11/15 07:47:49;;;;;;;8.38;2.75;;;12.80;99.90;;;12.19;100.00;99661.16;4217951;28;20024;-81
2022/11/15 07:49:50;;;;;;;7.30;3.78;;;12.90;99.90;;;12.12;100.00;99649.75;4250880;28;20031;-81
2022/11/15 07:51:51;;;;;;;12.60;4.13;;;12.90;99.90;;;12.18;100.00;99653.44;4218533;28;20467;-81
2022/11/15 07:53:52;;;;;;;13.27;4.70;;;12.90;99.90;;;12.29;100.00;99667.94;4218117;28;20035;-80
2022/11/15 07:55:53;;;;;;;10.30;2.90;;;12.90;99.90;;;12.23;100.00;99652.84;4216892;28;20016;-81
2022/11/15 07:58:04;;;;;;;8.85;2.53;;;12.90;99.90;;;12.31;100.00;99647.41;4233610;28;20032;-81
2022/11/15 08:00:06;;;;;;;11.32;3.15;;;13.00;99.90;;;12.42;100.00;99655.63;4250174;28;20102;-81
2022/11/15 08:02:09;;;;;;;16.38;3.22;;;13.00;99.90;;;12.37;100.00;99643.97;4218249;28;20031;-81
2022/11/15 08:04:11;;;;;;;13.30;3.42;;;13.00;99.90;;;12.35;100.00;99656.59;4218334;28;20418;-81
2022/11/15 08:06:12;;;;;;;16.27;4.88;;;13.00;99.90;;;12.34;100.00;99670.81;4250776;28;20108;-81
2022/11/15 08:08:13;;;;;;;14.32;4.80;;;13.00;99.90;;;12.32;100.00;99657.78;4218095;28;20024;-81
2022/11/15 08:10:16;;;;;;;15.63;3.83;;;13.00;99.90;;;12.27;100.00;99664.69;4218223;28;20028;-81
2022/11/15 08:12:17;;;;;;;12.55;4.20;;;13.00;99.90;;;12.33;100.00;99661.25;4218208;28;20021;-81
2022/11/15 08:14:18;;;;;;;14.00;4.20;;;13.00;99.90;;;12.33;100.00;99653.31;4217955;28;20036;-81
2022/11/15 08:16:19;;;;;;;17.50;5.55;;;13.00;99.90;;;12.26;100.00;99636.59;4250844;28;20506;-81
2022/11/15 08:18:19;;;;;;;14.13;5.82;;;13.00;99.90;;;12.28;100.00;99635.38;4214726;28;20059;-81
2022/11/15 08:20:20;;;;;;;20.67;3.22;;;12.90;99.90;;;12.25;100.00;99629.66;4217991;28;20047;-81
2022/11/15 08:22:21;;;;;;;20.42;3.80;;;12.90;99.90;;;12.20;100.00;99638.19;4250399;28;20039;-81
2022/11/15 08:24:22;;;;;;;12.82;3.75;;;12.90;99.90;;;12.27;100.00;99630.31;4216925;28;20410;-81
2022/11/15 08:26:24;;;;;;;11.50;3.38;;;13.00;99.90;;;12.33;100.00;99622.41;4218647;28;20024;-81
2022/11/15 08:28:25;;;;;;;16.55;3.70;;;13.00;99.90;;;12.36;100.00;99629.97;4221009;28;20548;-81
2022/11/15 08:30:27;;;;;;;14.32;3.03;;;13.00;99.90;;;12.29;100.00;99620.34;4220882;28;20028;-81
2022/11/15 08:32:28;;;;;;;17.17;3.92;;;13.10;99.90;;;12.34;100.00;99612.63;4253812;27;20022;-81
2022/11/15 08:34:29;;;;;;;11.07;2.65;;;13.10;99.90;;;12.32;100.00;99606.72;4220963;28;20043;-81
2022/11/15 08:36:30;;;;;;;14.73;4.55;;;13.10;99.90;;;12.35;100.00;99607.16;4220948;28;20032;-81
2022/11/15 08:38:30;;;;;;;18.73;3.38;;;13.10;99.90;;;12.34;100.00;99607.34;4253347;27;20189;-81
2022/11/15 08:40:31;;;;;;;17.42;4.45;;;13.10;99.90;;;12.35;100.00;99606.34;4219814;28;20538;-81
2022/11/15 08:42:33;;;;;;;15.75;3.28;;;13.10;99.90;;;12.38;100.00;99603.31;4253807;27;20517;-81
2022/11/15 08:44:33;;;;;;;14.00;2.97;;;13.10;99.90;;;12.41;100.00;99601.09;4220919;28;20042;-81
2022/11/15 08:46:34;;;;;;;20.50;4.18;;;13.10;99.90;;;12.36;100.00;99584.19;4220174;28;20020;-81
2022/11/15 08:48:35;;;;;;;16.15;2.83;;;13.10;99.90;;;12.41;100.00;99576.47;4219392;28;20484;-81
2022/11/15 08:50:36;;;;;;;18.58;3.80;;;13.20;99.90;;;12.41;100.00;99565.91;4219672;28;20511;-81